sensor_id;sensor_type;location;lat;lon;timestamp;temperature;humidity
27890;DHT22;15238;49.082;9.102;2022-12-07T00:00:24;3.60;99.90
27890;DHT22;15238;49.082;9.102;2022-12-07T00:02:25;3.70;99.90
27890;DHT22;15238;49.082;9.102;2022-12-07T00:04:25;3.70;99.90
27890;DHT22;15238;49.082;9.102;2022-12-07T00:06:26;3.60;99.90
27890;DHT22;15238;49.082;9.102;2022-12-07T00:08:27;3.70;99.90
27890;DHT22;15238;49.082;9.102;2022-12-07T00:10:28;3.70;99.90
27890;DHT22;15238;49.082;9.102;2022-12-07T00:12:28;3.60;99.90
27890;DHT22;15238;49.082;9.102;2022-12-07T00:14:29;3.70;99.90
27890;DHT22;15238;49.082;9.102;2022-12-07T00:16:31;3.70;99.90
27890;DHT22;15238;49.082;9.102;2022-12-07T00:18:31;3.60;99.90
27890;DHT22;15238;49.082;9.102;2022-12-07T00:20:32;3.60;99.90
27890;DHT22;15238;49.082;9.102;2022-12-07T00:22:33;3.60;99.90
27890;DHT22;15238;49.082;9.102;2022-12-07T00:24:33;3.70;99.90
27890;DHT22;15238;49.082;9.102;2022-12-07T00:26:36;3.70;99.90
27890;DHT22;15238;49.082;9.102;2022-12-07T00:28:38;3.70;99.90
27890;DHT22;15238;49.082;9.102;2022-12-07T00:30:39;3.70;99.90
27890;DHT22;15238;49.082;9.102;2022-12-07T00:32:39;3.70;99.90
27890;DHT22;15238;49.082;9.102;2022-12-07T00:34:40;3.60;99.90
27890;DHT22;15238;49.082;9.102;2022-12-07T00:36:40;3.60;99.90
27890;DHT22;15238;49.082;9.102;2022-12-07T00:38:41;3.60;99.90
27890;DHT22;15238;49.082;9.102;2022-12-07T00:40:42;3.60;99.90
27890;DHT22;15238;49.082;9.102;2022-12-07T00:42:42;3.60;99.90
27890;DHT22;15238;49.082;9.102;2022-12-07T00:44:42;3.60;99.90
27890;DHT22;15238;49.082;9.102;2022-12-07T00:46:43;3.60;99.90
27890;DHT22;15238;49.082;9.102;2022-12-07T00:48:46;3.60;99.90
27890;DHT22;15238;49.082;9.102;2022-12-07T00:50:47;3.60;99.90
27890;DHT22;15238;49.082;9.102;2022-12-07T00:52:48;3.60;99.90
27890;DHT22;15238;49.082;9.102;2022-12-07T00:54:48;3.60;99.90
27890;DHT22;15238;49.082;9.102;2022-12-07T00:56:49;3.60;99.90
27890;DHT22;15238;49.082;9.102;2022-12-07T00:58:58;3.60;99.90
27890;DHT22;15238;49.082;9.102;2022-12-07T01:01:01;3.50;99.90
27890;DHT22;15238;49.082;9.102;2022-12-07T01:03:03;3.50;99.90
27890;DHT22;15238;49.082;9.102;2022-12-07T01:05:04;3.60;99.90
27890;DHT22;15238;49.082;9.102;2022-12-07T01:07:04;3.50;99.90
27890;DHT22;15238;49.082;9.102;2022-12-07T01:09:05;3.50;99.90
27890;DHT22;15238;49.082;9.102;2022-12-07T01:11:08;3.60;99.90
27890;DHT22;15238;49.082;9.102;2022-12-07T01:13:09;3.50;99.90
27890;DHT22;15238;49.082;9.102;2022-12-07T01:15:11;3.50;99.90
27890;DHT22;15238;49.082;9.102;2022-12-07T01:17:11;3.50;99.90
27890;DHT22;15238;49.082;9.102;2022-12-07T01:19:12;3.40;99.90
27890;DHT22;15238;49.082;9.102;2022-12-07T01:23:14;3.30;99.90
27890;DHT22;15238;49.082;9.102;2022-12-07T01:25:15;3.20;99.90
27890;DHT22;15238;49.082;9.102;2022-12-07T01:27:15;3.30;99.90
27890;DHT22;15238;49.082;9.102;2022-12-07T01:29:16;3.30;99.90
27890;DHT22;15238;49.082;9.102;2022-12-07T01:31:19;3.30;99.90
27890;DHT22;15238;49.082;9.102;2022-12-07T01:33:19;3.30;99.90
27890;DHT22;15238;49.082;9.102;2022-12-07T01:35:20;3.30;99.90
27890;DHT22;15238;49.082;9.102;2022-12-07T01:37:21;3.30;99.90
27890;DHT22;15238;49.082;9.102;2022-12-07T01:39:21;3.30;99.90
27890;DHT22;15238;49.082;9.102;2022-12-07T01:41:24;3.30;99.90
27890;DHT22;15238;49.082;9.102;2022-12-07T01:43:27;3.30;99.90
27890;DHT22;15238;49.082;9.102;2022-12-07T01:45:34;3.30;99.90
27890;DHT22;15238;49.082;9.102;2022-12-07T01:47:37;3.30;99.90
27890;DHT22;15238;49.082;9.102;2022-12-07T01:49:42;3.30;99.90
27890;DHT22;15238;49.082;9.102;2022-12-07T01:51:45;3.30;99.90
27890;DHT22;15238;49.082;9.102;2022-12-07T01:53:46;3.30;99.90
27890;DHT22;15238;49.082;9.102;2022-12-07T01:55:50;3.30;99.90
27890;DHT22;15238;49.082;9.102;2022-12-07T01:57:53;3.30;99.90
27890;DHT22;15238;49.082;9.102;2022-12-07T01:59:56;3.30;99.90
27890;DHT22;15238;49.082;9.102;2022-12-07T02:01:57;3.30;99.90
27890;DHT22;15238;49.082;9.102;2022-12-07T02:03:58;3.30;99.90
27890;DHT22;15238;49.082;9.102;2022-12-07T02:05:59;3.30;99.90
27890;DHT22;15238;49.082;9.102;2022-12-07T02:08:01;3.30;99.90
27890;DHT22;15238;49.082;9.102;2022-12-07T02:10:16;3.30;99.90
27890;DHT22;15238;49.082;9.102;2022-12-07T02:12:18;3.20;99.90
27890;DHT22;15238;49.082;9.102;2022-12-07T02:14:19;3.20;99.90
27890;DHT22;15238;49.082;9.102;2022-12-07T02:16:38;3.20;99.90
27890;DHT22;15238;49.082;9.102;2022-12-07T02:21:06;3.30;99.90
27890;DHT22;15238;49.082;9.102;2022-12-07T02:28:06;3.20;99.90
27890;DHT22;15238;49.082;9.102;2022-12-07T02:30:13;3.20;99.90
27890;DHT22;15238;49.082;9.102;2022-12-07T02:32:19;3.30;99.90
27890;DHT22;15238;49.082;9.102;2022-12-07T02:36:56;3.30;99.90
27890;DHT22;15238;49.082;9.102;2022-12-07T02:39:18;3.30;99.90
27890;DHT22;15238;49.082;9.102;2022-12-07T02:41:35;3.30;99.90
27890;DHT22;15238;49.082;9.102;2022-12-07T02:43:43;3.20;99.90
27890;DHT22;15238;49.082;9.102;2022-12-07T02:45:46;3.20;99.90
27890;DHT22;15238;49.082;9.102;2022-12-07T02:47:51;3.20;99.90
27890;DHT22;15238;49.082;9.102;2022-12-07T02:49:53;3.20;99.90
27890;DHT22;15238;49.082;9.102;2022-12-07T02:51:53;3.20;99.90
27890;DHT22;15238;49.082;9.102;2022-12-07T02:53:54;3.20;99.90
27890;DHT22;15238;49.082;9.102;2022-12-07T02:55:54;3.20;99.90
27890;DHT22;15238;49.082;9.102;2022-12-07T02:58:05;3.20;99.90
27890;DHT22;15238;49.082;9.102;2022-12-07T03:00:16;3.20;99.90
27890;DHT22;15238;49.082;9.102;2022-12-07T03:09:35;3.20;99.90
27890;DHT22;15238;49.082;9.102;2022-12-07T03:11:48;3.20;99.90
27890;DHT22;15238;49.082;9.102;2022-12-07T03:18:20;3.20;99.90
27890;DHT22;15238;49.082;9.102;2022-12-07T03:20:23;3.20;99.90
27890;DHT22;15238;49.082;9.102;2022-12-07T03:22:25;3.20;99.90
27890;DHT22;15238;49.082;9.102;2022-12-07T03:24:35;3.20;99.90
27890;DHT22;15238;49.082;9.102;2022-12-07T03:26:40;3.20;99.90
27890;DHT22;15238;49.082;9.102;2022-12-07T03:28:47;3.30;99.90
27890;DHT22;15238;49.082;9.102;2022-12-07T03:33:29;3.30;99.90
27890;DHT22;15238;49.082;9.102;2022-12-07T03:35:36;3.20;99.90
27890;DHT22;15238;49.082;9.102;2022-12-07T03:40:11;3.10;99.90
27890;DHT22;15238;49.082;9.102;2022-12-07T03:42:14;3.10;99.90
27890;DHT22;15238;49.082;9.102;2022-12-07T03:44:15;3.10;99.90
27890;DHT22;15238;49.082;9.102;2022-12-07T03:48:24;3.10;99.90
27890;DHT22;15238;49.082;9.102;2022-12-07T03:50:36;3.10;99.90
27890;DHT22;15238;49.082;9.102;2022-12-07T03:52:42;3.10;99.90
27890;DHT22;15238;49.082;9.102;2022-12-07T03:55:27;3.10;99.90
27890;DHT22;15238;49.082;9.102;2022-12-07T03:57:22;3.20;99.90
27890;DHT22;15238;49.082;9.102;2022-12-07T03:59:24;3.20;99.90
27890;DHT22;15238;49.082;9.102;2022-12-07T04:01:25;3.20;99.90
27890;DHT22;15238;49.082;9.102;2022-12-07T04:03:26;3.20;99.90
27890;DHT22;15238;49.082;9.102;2022-12-07T04:05:27;3.20;99.90
27890;DHT22;15238;49.082;9.102;2022-12-07T04:07:27;3.10;99.90
27890;DHT22;15238;49.082;9.102;2022-12-07T04:09:28;3.20;99.90
27890;DHT22;15238;49.082;9.102;2022-12-07T04:11:29;3.20;99.90
27890;DHT22;15238;49.082;9.102;2022-12-07T04:13:29;3.20;99.90
27890;DHT22;15238;49.082;9.102;2022-12-07T04:15:30;3.20;99.90
27890;DHT22;15238;49.082;9.102;2022-12-07T04:17:31;3.20;99.90
27890;DHT22;15238;49.082;9.102;2022-12-07T04:19:33;3.10;99.90
27890;DHT22;15238;49.082;9.102;2022-12-07T04:21:34;3.10;99.90
27890;DHT22;15238;49.082;9.102;2022-12-07T04:23:34;3.10;99.90
27890;DHT22;15238;49.082;9.102;2022-12-07T04:25:35;3.10;99.90
27890;DHT22;15238;49.082;9.102;2022-12-07T04:27:35;3.10;99.90
27890;DHT22;15238;49.082;9.102;2022-12-07T04:29:36;3.10;99.90
27890;DHT22;15238;49.082;9.102;2022-12-07T04:31:37;3.10;99.90
27890;DHT22;15238;49.082;9.102;2022-12-07T04:33:37;3.10;99.90
27890;DHT22;15238;49.082;9.102;2022-12-07T04:35:38;3.10;99.90
27890;DHT22;15238;49.082;9.102;2022-12-07T04:37:38;3.00;99.90
27890;DHT22;15238;49.082;9.102;2022-12-07T04:39:40;3.00;99.90
27890;DHT22;15238;49.082;9.102;2022-12-07T04:41:40;3.00;99.90
27890;DHT22;15238;49.082;9.102;2022-12-07T04:43:41;3.00;99.90
27890;DHT22;15238;49.082;9.102;2022-12-07T04:45:48;3.00;99.90
27890;DHT22;15238;49.082;9.102;2022-12-07T04:47:48;3.00;99.90
27890;DHT22;15238;49.082;9.102;2022-12-07T04:49:49;3.00;99.90
27890;DHT22;15238;49.082;9.102;2022-12-07T04:51:50;3.10;99.90
27890;DHT22;15238;49.082;9.102;2022-12-07T04:53:51;3.10;99.90
27890;DHT22;15238;49.082;9.102;2022-12-07T04:55:52;3.10;99.90
27890;DHT22;15238;49.082;9.102;2022-12-07T04:57:52;3.10;99.90
27890;DHT22;15238;49.082;9.102;2022-12-07T04:59:53;3.10;99.90
27890;DHT22;15238;49.082;9.102;2022-12-07T05:01:53;3.10;99.90
27890;DHT22;15238;49.082;9.102;2022-12-07T05:03:54;3.00;99.90
27890;DHT22;15238;49.082;9.102;2022-12-07T05:05:54;3.10;99.90
27890;DHT22;15238;49.082;9.102;2022-12-07T05:07:55;3.10;99.90
27890;DHT22;15238;49.082;9.102;2022-12-07T05:09:56;3.10;99.90
27890;DHT22;15238;49.082;9.102;2022-12-07T05:11:56;3.10;99.90
27890;DHT22;15238;49.082;9.102;2022-12-07T05:13:57;3.10;99.90
27890;DHT22;15238;49.082;9.102;2022-12-07T05:15:57;3.10;99.90
27890;DHT22;15238;49.082;9.102;2022-12-07T05:17:58;3.10;99.90
27890;DHT22;15238;49.082;9.102;2022-12-07T05:19:58;3.10;99.90
27890;DHT22;15238;49.082;9.102;2022-12-07T05:21:59;3.10;99.90
27890;DHT22;15238;49.082;9.102;2022-12-07T05:24:00;3.10;99.90
27890;DHT22;15238;49.082;9.102;2022-12-07T05:26:00;3.10;99.90
27890;DHT22;15238;49.082;9.102;2022-12-07T05:28:01;3.10;99.90
27890;DHT22;15238;49.082;9.102;2022-12-07T05:30:01;3.10;99.90
27890;DHT22;15238;49.082;9.102;2022-12-07T05:32:02;3.10;99.90
27890;DHT22;15238;49.082;9.102;2022-12-07T05:34:03;3.10;99.90
27890;DHT22;15238;49.082;9.102;2022-12-07T05:36:03;3.10;99.90
27890;DHT22;15238;49.082;9.102;2022-12-07T05:38:05;3.20;99.90
27890;DHT22;15238;49.082;9.102;2022-12-07T05:40:06;3.20;99.90
27890;DHT22;15238;49.082;9.102;2022-12-07T05:42:09;3.20;99.90
27890;DHT22;15238;49.082;9.102;2022-12-07T05:44:13;3.20;99.90
27890;DHT22;15238;49.082;9.102;2022-12-07T05:46:14;3.20;99.90
27890;DHT22;15238;49.082;9.102;2022-12-07T05:48:14;3.20;99.90
27890;DHT22;15238;49.082;9.102;2022-12-07T05:50:15;3.20;99.90
27890;DHT22;15238;49.082;9.102;2022-12-07T05:52:15;3.20;99.90
27890;DHT22;15238;49.082;9.102;2022-12-07T05:54:16;3.20;99.90
27890;DHT22;15238;49.082;9.102;2022-12-07T05:56:17;3.20;99.90
27890;DHT22;15238;49.082;9.102;2022-12-07T05:58:17;3.20;99.90
27890;DHT22;15238;49.082;9.102;2022-12-07T06:00:36;3.10;99.90
27890;DHT22;15238;49.082;9.102;2022-12-07T06:02:37;3.10;99.90
27890;DHT22;15238;49.082;9.102;2022-12-07T06:04:44;3.10;99.90
27890;DHT22;15238;49.082;9.102;2022-12-07T06:06:45;3.10;99.90
27890;DHT22;15238;49.082;9.102;2022-12-07T06:08:46;3.10;99.90
27890;DHT22;15238;49.082;9.102;2022-12-07T06:10:47;3.10;99.90
27890;DHT22;15238;49.082;9.102;2022-12-07T06:13:08;3.10;99.90
27890;DHT22;15238;49.082;9.102;2022-12-07T06:15:10;3.10;99.90
27890;DHT22;15238;49.082;9.102;2022-12-07T06:17:13;3.10;99.90
27890;DHT22;15238;49.082;9.102;2022-12-07T06:19:14;3.10;99.90
27890;DHT22;15238;49.082;9.102;2022-12-07T06:21:14;3.10;99.90
27890;DHT22;15238;49.082;9.102;2022-12-07T06:23:15;3.10;99.90
27890;DHT22;15238;49.082;9.102;2022-12-07T06:25:16;3.10;99.90
27890;DHT22;15238;49.082;9.102;2022-12-07T06:27:16;3.20;99.90
27890;DHT22;15238;49.082;9.102;2022-12-07T06:29:18;3.20;99.90
27890;DHT22;15238;49.082;9.102;2022-12-07T06:31:20;3.20;99.90
27890;DHT22;15238;49.082;9.102;2022-12-07T06:33:21;3.20;99.90
27890;DHT22;15238;49.082;9.102;2022-12-07T06:35:21;3.20;99.90
27890;DHT22;15238;49.082;9.102;2022-12-07T06:37:22;3.10;99.90
27890;DHT22;15238;49.082;9.102;2022-12-07T06:39:25;3.10;99.90
27890;DHT22;15238;49.082;9.102;2022-12-07T06:41:26;3.10;99.90
27890;DHT22;15238;49.082;9.102;2022-12-07T06:43:26;3.20;99.90
27890;DHT22;15238;49.082;9.102;2022-12-07T06:45:27;3.10;99.90
27890;DHT22;15238;49.082;9.102;2022-12-07T06:47:28;3.10;99.90
27890;DHT22;15238;49.082;9.102;2022-12-07T06:49:28;3.20;99.90
27890;DHT22;15238;49.082;9.102;2022-12-07T06:51:29;3.20;99.90
27890;DHT22;15238;49.082;9.102;2022-12-07T06:53:29;3.20;99.90
27890;DHT22;15238;49.082;9.102;2022-12-07T06:55:30;3.20;99.90
27890;DHT22;15238;49.082;9.102;2022-12-07T06:57:30;3.30;99.90
27890;DHT22;15238;49.082;9.102;2022-12-07T06:59:31;3.30;99.90
27890;DHT22;15238;49.082;9.102;2022-12-07T07:01:32;3.30;99.90
27890;DHT22;15238;49.082;9.102;2022-12-07T07:03:33;3.30;99.90
27890;DHT22;15238;49.082;9.102;2022-12-07T07:05:34;3.20;99.90
27890;DHT22;15238;49.082;9.102;2022-12-07T07:07:35;3.20;99.90
27890;DHT22;15238;49.082;9.102;2022-12-07T07:09:35;3.20;99.90
27890;DHT22;15238;49.082;9.102;2022-12-07T07:11:36;3.20;99.90
27890;DHT22;15238;49.082;9.102;2022-12-07T07:13:37;3.20;99.90
27890;DHT22;15238;49.082;9.102;2022-12-07T07:15:38;3.20;99.90
27890;DHT22;15238;49.082;9.102;2022-12-07T07:17:38;3.20;99.90
27890;DHT22;15238;49.082;9.102;2022-12-07T07:19:39;3.20;99.90
27890;DHT22;15238;49.082;9.102;2022-12-07T07:21:39;3.20;99.90
27890;DHT22;15238;49.082;9.102;2022-12-07T07:23:40;3.20;99.90
27890;DHT22;15238;49.082;9.102;2022-12-07T07:25:40;3.20;99.90
27890;DHT22;15238;49.082;9.102;2022-12-07T07:27:41;3.20;99.90
27890;DHT22;15238;49.082;9.102;2022-12-07T07:29:42;3.20;99.90
27890;DHT22;15238;49.082;9.102;2022-12-07T07:31:43;3.30;99.90
27890;DHT22;15238;49.082;9.102;2022-12-07T07:33:45;3.30;99.90
27890;DHT22;15238;49.082;9.102;2022-12-07T07:35:46;3.30;99.90
27890;DHT22;15238;49.082;9.102;2022-12-07T07:37:47;3.30;99.90
27890;DHT22;15238;49.082;9.102;2022-12-07T07:39:47;3.30;99.90
27890;DHT22;15238;49.082;9.102;2022-12-07T07:41:48;3.30;99.90
27890;DHT22;15238;49.082;9.102;2022-12-07T07:43:48;3.40;99.90
27890;DHT22;15238;49.082;9.102;2022-12-07T07:45:49;3.40;99.90
27890;DHT22;15238;49.082;9.102;2022-12-07T07:47:50;3.40;99.90
27890;DHT22;15238;49.082;9.102;2022-12-07T07:49:51;3.40;99.90
27890;DHT22;15238;49.082;9.102;2022-12-07T07:51:51;3.40;99.90
27890;DHT22;15238;49.082;9.102;2022-12-07T07:53:52;3.50;99.90
27890;DHT22;15238;49.082;9.102;2022-12-07T07:55:55;3.50;99.90
27890;DHT22;15238;49.082;9.102;2022-12-07T07:57:55;3.50;99.90
27890;DHT22;15238;49.082;9.102;2022-12-07T07:59:56;3.50;99.90
27890;DHT22;15238;49.082;9.102;2022-12-07T08:01:56;3.50;99.90
27890;DHT22;15238;49.082;9.102;2022-12-07T08:03:57;3.60;99.90
27890;DHT22;15238;49.082;9.102;2022-12-07T08:05:57;3.60;99.90
27890;DHT22;15238;49.082;9.102;2022-12-07T08:07:58;3.70;99.90
27890;DHT22;15238;49.082;9.102;2022-12-07T08:09:59;3.70;99.90
27890;DHT22;15238;49.082;9.102;2022-12-07T08:11:59;3.70;99.90
27890;DHT22;15238;49.082;9.102;2022-12-07T08:14:01;3.70;99.90
27890;DHT22;15238;49.082;9.102;2022-12-07T08:16:06;3.70;99.90
27890;DHT22;15238;49.082;9.102;2022-12-07T08:18:07;3.80;99.90
27890;DHT22;15238;49.082;9.102;2022-12-07T08:20:08;3.80;99.90
27890;DHT22;15238;49.082;9.102;2022-12-07T08:22:08;3.80;99.90
27890;DHT22;15238;49.082;9.102;2022-12-07T08:24:09;3.80;99.90
27890;DHT22;15238;49.082;9.102;2022-12-07T08:26:12;3.90;99.90
27890;DHT22;15238;49.082;9.102;2022-12-07T08:28:14;3.90;99.90
27890;DHT22;15238;49.082;9.102;2022-12-07T08:30:15;3.90;99.90
27890;DHT22;15238;49.082;9.102;2022-12-07T08:32:16;4.00;99.90
27890;DHT22;15238;49.082;9.102;2022-12-07T08:34:16;4.00;99.90
27890;DHT22;15238;49.082;9.102;2022-12-07T08:36:17;4.00;99.90
27890;DHT22;15238;49.082;9.102;2022-12-07T08:38:18;4.10;99.90
27890;DHT22;15238;49.082;9.102;2022-12-07T08:40:19;4.10;99.90
27890;DHT22;15238;49.082;9.102;2022-12-07T08:42:21;4.10;99.90
27890;DHT22;15238;49.082;9.102;2022-12-07T08:44:23;4.10;99.90
27890;DHT22;15238;49.082;9.102;2022-12-07T08:46:28;4.10;99.90
27890;DHT22;15238;49.082;9.102;2022-12-07T08:48:30;4.10;99.90
27890;DHT22;15238;49.082;9.102;2022-12-07T08:50:32;4.10;99.90
27890;DHT22;15238;49.082;9.102;2022-12-07T08:52:34;4.00;99.90
27890;DHT22;15238;49.082;9.102;2022-12-07T08:54:36;4.10;99.90
27890;DHT22;15238;49.082;9.102;2022-12-07T08:56:38;4.10;99.90
27890;DHT22;15238;49.082;9.102;2022-12-07T08:58:39;4.00;99.90
27890;DHT22;15238;49.082;9.102;2022-12-07T09:00:39;4.10;99.90
27890;DHT22;15238;49.082;9.102;2022-12-07T09:02:40;4.10;99.90
27890;DHT22;15238;49.082;9.102;2022-12-07T09:04:40;4.10;99.90
27890;DHT22;15238;49.082;9.102;2022-12-07T09:06:41;4.10;99.90
27890;DHT22;15238;49.082;9.102;2022-12-07T09:08:46;4.10;99.90
27890;DHT22;15238;49.082;9.102;2022-12-07T09:10:47;4.00;99.90
27890;DHT22;15238;49.082;9.102;2022-12-07T09:12:48;4.10;99.90
27890;DHT22;15238;49.082;9.102;2022-12-07T09:14:48;4.10;99.90
27890;DHT22;15238;49.082;9.102;2022-12-07T09:16:49;4.10;99.90
27890;DHT22;15238;49.082;9.102;2022-12-07T09:18:49;4.20;99.90
27890;DHT22;15238;49.082;9.102;2022-12-07T09:20:50;4.10;99.90
27890;DHT22;15238;49.082;9.102;2022-12-07T09:22:51;4.20;99.90
27890;DHT22;15238;49.082;9.102;2022-12-07T09:24:52;4.20;99.90
27890;DHT22;15238;49.082;9.102;2022-12-07T09:26:52;4.20;99.90
27890;DHT22;15238;49.082;9.102;2022-12-07T09:28:53;4.30;99.90
27890;DHT22;15238;49.082;9.102;2022-12-07T09:30:53;4.40;99.90
27890;DHT22;15238;49.082;9.102;2022-12-07T09:32:56;4.30;99.90
27890;DHT22;15238;49.082;9.102;2022-12-07T09:34:56;4.20;99.90
27890;DHT22;15238;49.082;9.102;2022-12-07T09:36:57;4.30;99.90
27890;DHT22;15238;49.082;9.102;2022-12-07T09:38:58;4.20;99.90
27890;DHT22;15238;49.082;9.102;2022-12-07T09:41:07;4.20;99.90
27890;DHT22;15238;49.082;9.102;2022-12-07T09:43:13;4.20;99.90
27890;DHT22;15238;49.082;9.102;2022-12-07T09:45:26;4.20;99.90
27890;DHT22;15238;49.082;9.102;2022-12-07T09:47:27;4.20;99.90
27890;DHT22;15238;49.082;9.102;2022-12-07T09:49:31;4.10;99.90
27890;DHT22;15238;49.082;9.102;2022-12-07T09:51:32;4.10;99.90
27890;DHT22;15238;49.082;9.102;2022-12-07T09:53:36;4.10;99.90
27890;DHT22;15238;49.082;9.102;2022-12-07T09:55:37;4.10;99.90
27890;DHT22;15238;49.082;9.102;2022-12-07T09:57:38;4.10;99.90
27890;DHT22;15238;49.082;9.102;2022-12-07T09:59:39;4.10;99.90
27890;DHT22;15238;49.082;9.102;2022-12-07T10:01:44;4.20;99.90
27890;DHT22;15238;49.082;9.102;2022-12-07T10:05:51;4.30;99.90
27890;DHT22;15238;49.082;9.102;2022-12-07T10:07:53;4.40;99.90
27890;DHT22;15238;49.082;9.102;2022-12-07T10:09:53;4.30;99.90
27890;DHT22;15238;49.082;9.102;2022-12-07T10:14:12;4.30;99.90
27890;DHT22;15238;49.082;9.102;2022-12-07T10:20:38;4.20;99.90
27890;DHT22;15238;49.082;9.102;2022-12-07T10:22:38;4.10;99.90
27890;DHT22;15238;49.082;9.102;2022-12-07T10:24:53;4.10;99.90
27890;DHT22;15238;49.082;9.102;2022-12-07T10:26:54;4.10;99.90
27890;DHT22;15238;49.082;9.102;2022-12-07T10:28:56;4.10;99.90
27890;DHT22;15238;49.082;9.102;2022-12-07T10:31:04;4.10;99.90
27890;DHT22;15238;49.082;9.102;2022-12-07T10:33:46;4.20;99.90
27890;DHT22;15238;49.082;9.102;2022-12-07T10:35:48;4.30;99.90
27890;DHT22;15238;49.082;9.102;2022-12-07T10:37:50;4.40;99.90
27890;DHT22;15238;49.082;9.102;2022-12-07T10:39:56;4.50;99.90
27890;DHT22;15238;49.082;9.102;2022-12-07T10:41:59;4.60;99.90
27890;DHT22;15238;49.082;9.102;2022-12-07T10:44:00;4.60;99.90
27890;DHT22;15238;49.082;9.102;2022-12-07T10:55:46;4.70;99.90
27890;DHT22;15238;49.082;9.102;2022-12-07T11:02:59;4.90;99.90
27890;DHT22;15238;49.082;9.102;2022-12-07T11:07:49;4.90;99.90
27890;DHT22;15238;49.082;9.102;2022-12-07T11:10:01;5.00;99.90
27890;DHT22;15238;49.082;9.102;2022-12-07T11:17:31;4.90;99.90
27890;DHT22;15238;49.082;9.102;2022-12-07T11:21:47;4.80;99.90
27890;DHT22;15238;49.082;9.102;2022-12-07T11:30:50;4.90;99.90
27890;DHT22;15238;49.082;9.102;2022-12-07T11:37:38;4.80;99.90
27890;DHT22;15238;49.082;9.102;2022-12-07T11:39:50;4.80;99.90
27890;DHT22;15238;49.082;9.102;2022-12-07T11:41:56;4.80;99.90
27890;DHT22;15238;49.082;9.102;2022-12-07T11:46:22;4.70;99.90
27890;DHT22;15238;49.082;9.102;2022-12-07T11:48:33;4.60;99.90
27890;DHT22;15238;49.082;9.102;2022-12-07T11:50:58;4.70;99.90
27890;DHT22;15238;49.082;9.102;2022-12-07T11:55:05;4.70;99.90
27890;DHT22;15238;49.082;9.102;2022-12-07T11:57:20;4.70;99.90
27890;DHT22;15238;49.082;9.102;2022-12-07T11:59:36;4.80;99.90
27890;DHT22;15238;49.082;9.102;2022-12-07T12:03:47;4.70;99.90
27890;DHT22;15238;49.082;9.102;2022-12-07T12:05:48;4.70;99.90
27890;DHT22;15238;49.082;9.102;2022-12-07T12:08:05;4.80;99.90
27890;DHT22;15238;49.082;9.102;2022-12-07T12:10:37;4.80;99.90
27890;DHT22;15238;49.082;9.102;2022-12-07T12:13:24;4.80;99.90
27890;DHT22;15238;49.082;9.102;2022-12-07T12:15:43;4.90;99.90
27890;DHT22;15238;49.082;9.102;2022-12-07T12:20:30;4.80;99.90
27890;DHT22;15238;49.082;9.102;2022-12-07T12:22:40;5.00;99.90
27890;DHT22;15238;49.082;9.102;2022-12-07T12:24:43;5.10;99.90
27890;DHT22;15238;49.082;9.102;2022-12-07T12:26:53;5.20;99.90
27890;DHT22;15238;49.082;9.102;2022-12-07T12:29:00;5.30;99.90
27890;DHT22;15238;49.082;9.102;2022-12-07T12:33:31;5.40;99.90
27890;DHT22;15238;49.082;9.102;2022-12-07T12:35:37;5.50;99.90
27890;DHT22;15238;49.082;9.102;2022-12-07T12:39:38;5.60;99.90
27890;DHT22;15238;49.082;9.102;2022-12-07T12:43:42;5.60;99.90
27890;DHT22;15238;49.082;9.102;2022-12-07T12:45:43;5.60;99.90
27890;DHT22;15238;49.082;9.102;2022-12-07T12:47:53;5.60;99.90
27890;DHT22;15238;49.082;9.102;2022-12-07T12:50:17;5.50;99.90
27890;DHT22;15238;49.082;9.102;2022-12-07T12:54:35;5.60;99.90
27890;DHT22;15238;49.082;9.102;2022-12-07T12:56:51;5.60;99.90
27890;DHT22;15238;49.082;9.102;2022-12-07T13:01:42;5.60;99.90
27890;DHT22;15238;49.082;9.102;2022-12-07T13:03:53;5.70;99.90
27890;DHT22;15238;49.082;9.102;2022-12-07T13:06:17;5.80;99.90
27890;DHT22;15238;49.082;9.102;2022-12-07T13:08:21;5.90;99.90
27890;DHT22;15238;49.082;9.102;2022-12-07T13:10:33;5.80;99.90
27890;DHT22;15238;49.082;9.102;2022-12-07T13:12:34;5.80;99.90
27890;DHT22;15238;49.082;9.102;2022-12-07T13:14:57;5.70;99.90
27890;DHT22;15238;49.082;9.102;2022-12-07T13:16:58;5.80;99.90
27890;DHT22;15238;49.082;9.102;2022-12-07T13:18:58;5.80;99.90
27890;DHT22;15238;49.082;9.102;2022-12-07T13:23:09;5.70;99.90
27890;DHT22;15238;49.082;9.102;2022-12-07T13:25:30;5.60;99.90
27890;DHT22;15238;49.082;9.102;2022-12-07T13:27:37;5.50;99.90
27890;DHT22;15238;49.082;9.102;2022-12-07T13:29:39;5.50;99.90
27890;DHT22;15238;49.082;9.102;2022-12-07T13:33:43;5.40;99.90
27890;DHT22;15238;49.082;9.102;2022-12-07T13:35:44;5.40;99.90
27890;DHT22;15238;49.082;9.102;2022-12-07T13:37:45;5.30;99.90
27890;DHT22;15238;49.082;9.102;2022-12-07T13:39:49;5.40;99.90
27890;DHT22;15238;49.082;9.102;2022-12-07T13:41:52;5.30;99.90
27890;DHT22;15238;49.082;9.102;2022-12-07T13:44:03;5.20;99.90
27890;DHT22;15238;49.082;9.102;2022-12-07T13:46:08;5.20;99.90
27890;DHT22;15238;49.082;9.102;2022-12-07T13:48:15;5.00;99.90
27890;DHT22;15238;49.082;9.102;2022-12-07T13:50:30;4.90;99.90
27890;DHT22;15238;49.082;9.102;2022-12-07T13:52:31;4.90;99.90
27890;DHT22;15238;49.082;9.102;2022-12-07T13:54:31;4.90;99.90
27890;DHT22;15238;49.082;9.102;2022-12-07T13:56:34;4.90;99.90
27890;DHT22;15238;49.082;9.102;2022-12-07T13:58:35;4.90;99.90
27890;DHT22;15238;49.082;9.102;2022-12-07T14:00:36;4.90;99.90
27890;DHT22;15238;49.082;9.102;2022-12-07T14:02:54;4.90;99.90
27890;DHT22;15238;49.082;9.102;2022-12-07T14:05:15;4.90;99.90
27890;DHT22;15238;49.082;9.102;2022-12-07T14:07:23;4.80;99.90
27890;DHT22;15238;49.082;9.102;2022-12-07T14:09:26;4.70;99.90
27890;DHT22;15238;49.082;9.102;2022-12-07T14:11:29;4.80;99.90
27890;DHT22;15238;49.082;9.102;2022-12-07T14:13:36;4.80;99.90
27890;DHT22;15238;49.082;9.102;2022-12-07T14:15:39;4.70;99.90
27890;DHT22;15238;49.082;9.102;2022-12-07T14:17:50;4.80;99.90
27890;DHT22;15238;49.082;9.102;2022-12-07T14:22:07;4.70;99.90
27890;DHT22;15238;49.082;9.102;2022-12-07T14:30:32;4.70;99.90
27890;DHT22;15238;49.082;9.102;2022-12-07T14:32:36;4.70;99.90
27890;DHT22;15238;49.082;9.102;2022-12-07T14:34:37;4.70;99.90
27890;DHT22;15238;49.082;9.102;2022-12-07T14:36:38;4.70;99.90
27890;DHT22;15238;49.082;9.102;2022-12-07T14:38:38;4.70;99.90
27890;DHT22;15238;49.082;9.102;2022-12-07T14:40:39;4.70;99.90
27890;DHT22;15238;49.082;9.102;2022-12-07T14:42:41;4.70;99.90
27890;DHT22;15238;49.082;9.102;2022-12-07T14:44:43;4.70;99.90
27890;DHT22;15238;49.082;9.102;2022-12-07T14:46:43;4.50;99.90
27890;DHT22;15238;49.082;9.102;2022-12-07T14:48:45;4.50;99.90
27890;DHT22;15238;49.082;9.102;2022-12-07T14:50:49;4.50;99.90
27890;DHT22;15238;49.082;9.102;2022-12-07T14:52:56;4.50;99.90
27890;DHT22;15238;49.082;9.102;2022-12-07T14:54:59;4.40;99.90
27890;DHT22;15238;49.082;9.102;2022-12-07T14:56:59;4.40;99.90
27890;DHT22;15238;49.082;9.102;2022-12-07T14:59:00;4.40;99.90
27890;DHT22;15238;49.082;9.102;2022-12-07T15:01:00;4.40;99.90